CMA CGM Aristote — MRPN4 — position and weather

sailwx.info

Track history (hours):
 
Tides and Currents Weather Stations Pressure Air Temp Water Temp Dewpoint Dewpoint Depression Visibility Wind Speed Wind Dir Waves Ship Positions

CMA CGM Aristote

Last reported at 2018-Jun-01 00:21 UTC. Time now 2018-Jun-21 11:53 UTC.
Position N 08°44' W 013°46'.
Warning: this ship's position is 20 days out of date.

Length 170 m; draft 6.8 m.

Type: Ship (hazmat cat A). MMSI: 235054581.

Date/timePositionNaut miles runAvg speedWind from/ knotsBaromVisibWave heightAir tempDewpointWater temp
2018-Jun-01 00:21N 08°44' W 013°46'1217.3
2018-May-31 23:38N 08°57' W 013°45'317.2
2018-May-31 23:28N 08°60' W 013°45'817.1
2018-May-31 23:00N 09°07' W 013°45'816.9
2018-May-31 22:31N 09°16' W 013°45'816.4
2018-May-31 22:01N 09°24' W 013°43'5 9.4
2018-May-31 21:30N 09°28' W 013°43'2 4.1
2018-May-31 20:59N 09°31' W 013°43'0 0.1
2018-May-31 20:29N 09°31' W 013°43'0 0.0
2018-May-31 19:59N 09°31' W 013°43'0 0.0
2018-May-31 19:29N 09°31' W 013°43'0 0.0
2018-May-31 18:59N 09°31' W 013°43'0 0.0
2018-May-31 18:29N 09°31' W 013°43'0 0.0
2018-May-31 17:59N 09°31' W 013°43'0 0.0
2018-May-31 17:29N 09°31' W 013°43'0 0.0
2018-May-31 16:59N 09°31' W 013°43'0 0.0
2018-May-31 16:29N 09°31' W 013°43'0 0.0
2018-May-31 15:59N 09°31' W 013°43'0 0.0
2018-May-31 15:29N 09°31' W 013°43'0 0.0
2018-May-31 14:59N 09°31' W 013°43'0 0.0
2018-May-31 14:29N 09°31' W 013°43'0 0.0
2018-May-31 13:59N 09°31' W 013°43'0 0.0
2018-May-31 13:29N 09°31' W 013°43'0 0.0
2018-May-31 12:59N 09°31' W 013°43'0 0.0
2018-May-31 12:29N 09°31' W 013°43'0 0.0
2018-May-31 11:59N 09°31' W 013°43'0 0.0
2018-May-31 11:29N 09°31' W 013°43'0 0.0
2018-May-31 10:59N 09°31' W 013°43'0 0.0
2018-May-31 10:29N 09°31' W 013°43'0 0.7
2018-May-31 10:00N 09°30' W 013°44'2 4.1
2018-May-31 09:30N 09°28' W 013°44'1 2.6
2018-May-31 09:01N 09°27' W 013°43'52 4.0
2018-May-30 19:55N 09°29' W 014°36'3 1.5
2018-May-30 17:41N 09°26' W 014°38'7 0.3
2018-May-29 21:12N 09°20' W 014°40'16 2.1
2018-May-29 13:46N 09°14' W 014°25'0 0.8
2018-May-29 13:26N 09°14' W 014°25'0 0.5
2018-May-29 12:59N 09°14' W 014°24'0 0.5
2018-May-29 12:30N 09°14' W 014°24'0 0.6
2018-May-29 11:59N 09°14' W 014°24'0 0.6
2018-May-29 11:20N 09°14' W 014°23'0 0.8
2018-May-29 11:00N 09°14' W 014°23'17 8.4
2018-May-29 08:57N 09°14' W 014°06'0 0.6
2018-May-29 08:27N 09°14' W 014°06'1 1.3
2018-May-29 08:00N 09°13' W 014°06'1 1.4
2018-May-29 07:29N 09°12' W 014°06'1 1.4
2018-May-29 07:00N 09°12' W 014°07'1 1.1
2018-May-29 06:30N 09°11' W 014°07'1 1.2
2018-May-29 06:00N 09°11' W 014°07'1 1.4
2018-May-29 05:27N 09°10' W 014°08'1 1.3
2018-May-29 04:58N 09°10' W 014°08'1 1.3
2018-May-29 04:20N 09°09' W 014°08'1 1.4
2018-May-29 03:57N 09°08' W 014°09'1 1.2
2018-May-29 02:53N 09°07' W 014°09'4 6.0
2018-May-29 02:15N 09°04' W 014°10'2 7.4
2018-May-29 01:56N 09°01' W 014°10'0 0.7
2018-May-29 01:29N 09°01' W 014°10'0 0.6
2018-May-29 00:57N 09°01' W 014°10'0 0.6
2018-May-29 00:27N 09°01' W 014°10'0 0.7
2018-May-29 00:00N 09°00' W 014°10'0 0.6
2018-May-28 23:30N 09°00' W 014°09'0 0.6
2018-May-28 23:00N 09°00' W 014°09'0 0.6
2018-May-28 22:30N 09°00' W 014°09'0 0.5
2018-May-28 22:00N 09°00' W 014°09'0 0.4
2018-May-28 21:30N 09°00' W 014°08'0 0.3
2018-May-28 21:00N 09°00' W 014°08'0 0.2
2018-May-28 20:29N 09°00' W 014°08'2 3.4
2018-May-28 19:46N 08°60' W 014°06'312.8
2018-May-28 19:30N 08°58' W 014°03'3412.5
2018-May-28 16:47N 08°37' W 013°36'35 0.7
2018-May-26 13:10N 08°52' W 014°08'  
2018-May-23 13:08N 27°31' W 014°04'217.4
2018-May-23 13:00N 27°33' W 014°02'4417.9
2018-May-23 10:33N 28°04' W 013°28'  
Track history (hours):
 
Tides and Currents Weather Stations Pressure Air Temp Water Temp Dewpoint Dewpoint Depression Visibility Wind Speed Wind Dir Waves Ship Positions

CMA CGM Aristote

Last reported at 2018-Jun-01 00:21 UTC. Time now 2018-Jun-21 11:53 UTC.
Position N 08°44' W 013°46'.
Warning: this ship's position is 20 days out of date.

Length 170 m; draft 6.8 m.

Type: Ship (hazmat cat A). MMSI: 235054581.

Date/timePositionNaut miles runAvg speedWind from/ knotsBaromVisibWave heightAir tempDewpointWater temp
2018-Jun-01 00:21N 08°44' W 013°46'1217.3
2018-May-31 23:38N 08°57' W 013°45'317.2
2018-May-31 23:28N 08°60' W 013°45'817.1
2018-May-31 23:00N 09°07' W 013°45'816.9
2018-May-31 22:31N 09°16' W 013°45'816.4
2018-May-31 22:01N 09°24' W 013°43'5 9.4
2018-May-31 21:30N 09°28' W 013°43'2 4.1
2018-May-31 20:59N 09°31' W 013°43'0 0.1
2018-May-31 20:29N 09°31' W 013°43'0 0.0
2018-May-31 19:59N 09°31' W 013°43'0 0.0
2018-May-31 19:29N 09°31' W 013°43'0 0.0
2018-May-31 18:59N 09°31' W 013°43'0 0.0
2018-May-31 18:29N 09°31' W 013°43'0 0.0
2018-May-31 17:59N 09°31' W 013°43'0 0.0
2018-May-31 17:29N 09°31' W 013°43'0 0.0
2018-May-31 16:59N 09°31' W 013°43'0 0.0
2018-May-31 16:29N 09°31' W 013°43'0 0.0
2018-May-31 15:59N 09°31' W 013°43'0 0.0
2018-May-31 15:29N 09°31' W 013°43'0 0.0
2018-May-31 14:59N 09°31' W 013°43'0 0.0
2018-May-31 14:29N 09°31' W 013°43'0 0.0
2018-May-31 13:59N 09°31' W 013°43'0 0.0
2018-May-31 13:29N 09°31' W 013°43'0 0.0
2018-May-31 12:59N 09°31' W 013°43'0 0.0
2018-May-31 12:29N 09°31' W 013°43'0 0.0
2018-May-31 11:59N 09°31' W 013°43'0 0.0
2018-May-31 11:29N 09°31' W 013°43'0 0.0
2018-May-31 10:59N 09°31' W 013°43'0 0.0
2018-May-31 10:29N 09°31' W 013°43'0 0.7
2018-May-31 10:00N 09°30' W 013°44'2 4.1
2018-May-31 09:30N 09°28' W 013°44'1 2.6
2018-May-31 09:01N 09°27' W 013°43'52 4.0
2018-May-30 19:55N 09°29' W 014°36'3 1.5
2018-May-30 17:41N 09°26' W 014°38'7 0.3
2018-May-29 21:12N 09°20' W 014°40'16 2.1
2018-May-29 13:46N 09°14' W 014°25'0 0.8
2018-May-29 13:26N 09°14' W 014°25'0 0.5
2018-May-29 12:59N 09°14' W 014°24'0 0.5
2018-May-29 12:30N 09°14' W 014°24'0 0.6
2018-May-29 11:59N 09°14' W 014°24'0 0.6
2018-May-29 11:20N 09°14' W 014°23'0 0.8
2018-May-29 11:00N 09°14' W 014°23'17 8.4
2018-May-29 08:57N 09°14' W 014°06'0 0.6
2018-May-29 08:27N 09°14' W 014°06'1 1.3
2018-May-29 08:00N 09°13' W 014°06'1 1.4
2018-May-29 07:29N 09°12' W 014°06'1 1.4
2018-May-29 07:00N 09°12' W 014°07'1 1.1
2018-May-29 06:30N 09°11' W 014°07'1 1.2
2018-May-29 06:00N 09°11' W 014°07'1 1.4
2018-May-29 05:27N 09°10' W 014°08'1 1.3
2018-May-29 04:58N 09°10' W 014°08'1 1.3
2018-May-29 04:20N 09°09' W 014°08'1 1.4
2018-May-29 03:57N 09°08' W 014°09'1 1.2
2018-May-29 02:53N 09°07' W 014°09'4 6.0
2018-May-29 02:15N 09°04' W 014°10'2 7.4
2018-May-29 01:56N 09°01' W 014°10'0 0.7
2018-May-29 01:29N 09°01' W 014°10'0 0.6
2018-May-29 00:57N 09°01' W 014°10'0 0.6
2018-May-29 00:27N 09°01' W 014°10'0 0.7
2018-May-29 00:00N 09°00' W 014°10'0 0.6
2018-May-28 23:30N 09°00' W 014°09'0 0.6
2018-May-28 23:00N 09°00' W 014°09'0 0.6
2018-May-28 22:30N 09°00' W 014°09'0 0.5
2018-May-28 22:00N 09°00' W 014°09'0 0.4
2018-May-28 21:30N 09°00' W 014°08'0 0.3
2018-May-28 21:00N 09°00' W 014°08'0 0.2
2018-May-28 20:29N 09°00' W 014°08'2 3.4
2018-May-28 19:46N 08°60' W 014°06'312.8
2018-May-28 19:30N 08°58' W 014°03'3412.5
2018-May-28 16:47N 08°37' W 013°36'35 0.7
2018-May-26 13:10N 08°52' W 014°08'  
2018-May-23 13:08N 27°31' W 014°04'217.4
2018-May-23 13:00N 27°33' W 014°02'4417.9
2018-May-23 10:33N 28°04' W 013°28'  

Dump ship's entire track history